Weather observations for the past three days for
Socorro Municipal Airport
Imperial (Metric)
Date Time (mdt) Wind (mph) Vis. (mi.) Weather Sky Cond. Temperature (ºF) Relative Humidity Wind Chill (°F) Heat Index (°F) Pressure Precipitation (in)
Air Dwpt 6 hour altimeter (in) sea level (mb) 1 hr 3 hr 6 hr
Max. Min.
02 23:55 S 3 10.00 Mostly Cloudy BKN120 77.9 42.8 91 77.9 29% 78 30.08 0.0
02 23:35 S 3 10.00 Partly Cloudy SCT120 78.3 42.4 28% 78 30.08 0.0
02 23:15 S 3 10.00 Fair CLR 79.5 42.4 27% 79 30.08 0.0
02 22:55 Calm 10.00 Fair CLR 79.2 43 28% 79 30.08 0.0
02 22:35 S 3 10.00 Fair CLR 78.1 43.3 29% 78 30.08 0.0
02 22:15 SE 3 10.00 Fair CLR 79.9 43.5 28% 79 30.08 0.0
02 21:55 SW 6 10.00 Fair CLR 80.6 41.2 25% 79 30.08 0.0
02 21:35 Calm 10.00 Fair CLR 80.4 42.8 26% 79 30.08 0.0
02 21:15 S 3 10.00 Fair CLR 82.9 40.6 22% 81 30.08 0.0
02 20:55 SW 7 10.00 Fair CLR 83.8 40.1 21% 81 30.07 0.0
02 20:35 SW 7 10.00 Fair CLR 84 39.9 21% 81 30.05 0.0
02 20:15 SW 5 10.00 Fair CLR 85.3 39.9 20% 82 30.05 0.0
02 19:55 S 5 10.00 Fair CLR 86.9 40.1 19% 84 30.05 0.0
02 19:35 S 5 10.00 Fair CLR 88.3 39.7 18% 85 30.04 0.0
02 19:15 SE 5 10.00 Partly Cloudy SCT120 90 39.2 17% 86 30.04 0.0
02 18:55 S 5 10.00 Partly Cloudy SCT120 91 39 16% 87 30.04 0.0
02 18:35 Calm 10.00 Fair CLR 90.5 39.2 16% 87 30.04 0.0
02 18:15 Calm 10.00 Fair CLR 90.5 39.2 16% 87 30.05 0.0
02 17:55 Calm 10.00 Fair CLR 90.5 39 93.6 88.7 16% 86 30.05 0.0
02 17:35 S 5 10.00 Fair CLR 90.9 38.7 16% 87 30.06 0.0
02 17:15 S 5 10.00 Fair CLR 91.6 38.1 15% 87 30.06 0.0
02 16:55 SE 8 10.00 Fair CLR 91.4 38.3 15% 87 30.07 0.0
02 16:35 S 5 10.00 Fair CLR 91.2 38.3 16% 87 30.08 0.0
02 16:15 Calm 10.00 Fair CLR 91.4 38.5 16% 87 30.08 0.0
02 15:55 Calm 10.00 Fair CLR 92.3 38.3 15% 88 30.09 0.0
02 15:35 E 5 10.00 Partly Cloudy SCT110 90.7 39.2 16% 87 30.1 0.0
02 15:15 SE 5 10.00 Partly Cloudy SCT110 91.9 39 16% 88 30.1 0.0
02 14:55 E 8 10.00 Partly Cloudy SCT110 90.9 39.7 17% 87 30.11 0.0
02 14:35 E 10 10.00 Fair CLR 91 39.7 17% 87 30.12 0.0
02 14:15 NE 9 10.00 Fair CLR 92.8 39.6 16% 89 30.13 0.0
02 13:55 N 3 10.00 Fair CLR 90.9 39.9 17% 87 30.14 0.0
02 13:35 E 10 10.00 Fair CLR 91.9 39.7 16% 88 30.14 0.0
02 13:15 Calm 10.00 Fair CLR 90.5 40.1 17% 87 30.16 0.0
02 12:55 NE 10 G 17 10.00 Fair CLR 90.9 40.5 17% 87 30.16 0.0
02 12:35 NE 12 G 17 10.00 Fair CLR 90.1 40.6 18% 86 30.18 0.0
02 12:15 N 6 10.00 Fair CLR 89.2 40.5 18% 85 30.19 0.0
02 11:55 N 7 G 18 10.00 Fair CLR 89.4 40.3 89.4 64.2 18% 86 30.19 0.0
02 11:35 N 12 G 18 10.00 Fair CLR 87.8 40.1 19% 84 30.2 0.0
02 11:15 NE 12 G 17 10.00 Fair CLR 87.8 39.9 19% 84 30.21 0.0
02 10:55 NE 9 10.00 Fair CLR 86.2 41.4 21% 83 30.21 0.0
02 10:35 N 12 G 16 10.00 Fair CLR 85.6 41.7 21% 83 30.21 0.0
02 10:15 N 9 10.00 Fair CLR 84.6 42.6 23% 82 30.2 0.0
02 09:55 NE 9 10.00 Fair CLR 82.6 44.6 26% 81 30.2 0.0
02 09:35 N 9 10.00 Fair CLR 81.5 45.9 29% 80 30.2 0.0
02 09:15 NE 7 10.00 Fair CLR 79 46.4 32% 79 30.2 0.0
02 08:55 Calm 10.00 Fair CLR 74.7 47.3 38% 30.2 0.0
02 08:35 N 3 10.00 Fair CLR 73.8 47.1 39% 30.21 0.0
02 08:15 Calm 10.00 Fair CLR 71.8 48.4 44% 30.2 0.0
02 07:55 Calm 10.00 Fair CLR 70.5 49.1 47% 30.2 0.0
02 07:35 N 5 10.00 Fair CLR 69.1 49.6 50% 30.19 0.0
02 07:15 NW 5 10.00 Fair CLR 67.1 49.3 53% 30.19 0.0
02 06:55 NW 7 10.00 Fair CLR 64.8 48.6 56% 30.17 0.0
02 06:35 Calm 10.00 Fair CLR 65.7 49.6 56% 30.17 0.0
02 06:15 NW 3 10.00 Fair CLR 65.5 48.6 55% 30.16 0.0
02 05:55 W 5 10.00 Fair CLR 66.2 47.7 74.8 66 51% 30.16 0.0
02 05:35 Calm 10.00 Fair CLR 66.9 49.3 53% 30.16 0.0
02 05:15 W 3 10.00 Fair CLR 68.2 48.9 50% 30.16 0.0
02 04:35 W 3 10.00 Partly Cloudy SCT100 SCT120 68.2 46.9 47% 30.15 0.0
02 04:15 Calm 10.00 Partly Cloudy SCT120 68 47.8 49% 30.15 0.0
02 03:55 W 5 10.00 Partly Cloudy SCT100 68.2 48 49% 30.15 0.0
02 03:35 Calm 10.00 Fair CLR 68.7 48.4 48% 30.15 0.0
02 03:15 Calm 10.00 Fair CLR 69.1 48.4 48% 30.15 0.0
02 02:55 W 3 10.00 Partly Cloudy SCT120 69.8 48.7 47% 30.15 0.0
02 02:35 Calm 10.00 Mostly Cloudy BKN120 71.1 49.3 46% 30.15 0.0
02 02:15 Calm 10.00 Mostly Cloudy BKN120 70.7 49.1 46% 30.16 0.0
02 01:55 Calm 10.00 Partly Cloudy SCT120 70.7 49.1 46% 30.16 0.0
02 01:35 Calm 10.00 Fair CLR 72.5 49.1 44% 30.16 0.0
02 01:15 NW 5 10.00 Fair CLR 72.9 49.3 43% 30.16 0.0
02 00:55 W 5 10.00 Partly Cloudy SCT120 73.8 49.5 42% 30.16 0.0
02 00:35 SW 6 10.00 Mostly Cloudy BKN120 74.7 48.6 40% 30.16 0.0
02 00:15 W 7 10.00 Mostly Cloudy BKN110 74.3 48.4 40% 30.15 0.0
01 23:55 SW 6 10.00 Mostly Cloudy BKN110 74.3 48.7 85.1 72.7 41% 30.16 0.0
01 23:35 SW 3 10.00 Fair CLR 73.4 48.7 42% 30.15 0.0
01 23:15 Calm 10.00 Fair CLR 74.3 48.9 41% 30.15 0.0
01 22:55 SW 3 10.00 Partly Cloudy SCT110 75 48.6 39% 77 30.15 0.0
01 22:35 Calm 10.00 Overcast OVC110 76.6 49.6 39% 78 30.16 0.0
01 22:15 Calm 10.00 Mostly Cloudy BKN110 77 48 36% 78 30.15 0.0
01 21:55 Calm 10.00 Mostly Cloudy BKN110 77.2 48 36% 78 30.15 0.0
01 21:35 W 5 10.00 Mostly Cloudy BKN110 77.2 48.2 36% 78 30.14 0.0
01 21:15 W 3 10.00 Mostly Cloudy BKN110 76.3 47.7 36% 78 30.13 0.0
01 20:55 Calm 10.00 Partly Cloudy SCT110 76.8 47.7 36% 78 30.13 0.0
01 20:35 W 3 10.00 Fair CLR 78.1 48 35% 78 30.12 0.0
01 20:15 Calm 10.00 Fair CLR 79.3 48.6 34% 79 30.11 0.0
01 19:55 Calm 10.00 Fair CLR 80.6 49.5 34% 80 30.11 0.0
01 19:35 E 3 10.00 Partly Cloudy SCT120 81.5 49.3 33% 80 30.1 0.0
01 19:15 E 3 10.00 Mostly Cloudy BKN120 81.5 49.1 32% 80 30.11 0.0
01 18:55 NE 6 10.00 Mostly Cloudy BKN110 81.7 49.3 32% 80 30.11 0.0
01 18:35 Calm 10.00 Partly Cloudy SCT110 82.2 49.8 32% 81 30.11 0.0
01 18:15 NW 12 G 18 10.00 Fair CLR 84.2 46 26% 82 30.11 0.0
01 17:55 W 13 10.00 Fair CLR 82.6 47.3 87.6 77.7 29% 81 30.12 0.0
01 17:35 W 14 10.00 Light Rain SCT035 SCT050 BKN110 81 48 32% 80 30.12 0.0
01 17:15 NW 16 G 21 10.00 Overcast OVC110 82.6 47.3 29% 81 30.13 0.0
01 16:55 NW 15 10.00 Mostly Cloudy SCT085 BKN110 84.2 49.3 30% 82 30.13 0.0
01 16:35 NW 9 10.00 Overcast SCT085 OVC100 84.7 50.2 30% 83 30.13 0.0
01 16:15 N 10 G 16 10.00 Mostly Cloudy BKN100 85.6 49.5 29% 83 30.12 0.0
01 15:55 NE 8 10.00 Partly Cloudy SCT090 87.1 48.9 27% 84 30.12 0.0
01 15:35 NE 3 10.00 Fair CLR 86.5 49.3 28% 84 30.13 0.0
01 15:15 N 3 10.00 Fair CLR 87.6 49.1 26% 85 30.14 0.0
01 14:55 Calm 10.00 Fair CLR 86 49.5 28% 84 30.15 0.0
01 14:35 SW 3 10.00 Fair CLR 84.7 49.8 30% 83 30.16 0.0
01 14:15 N 3 10.00 Fair CLR 83.5 49.8 31% 82 30.17 0.0
01 13:55 Calm 10.00 Partly Cloudy SCT110 80.6 49.5 34% 80 30.18 0.0
01 13:35 Calm 10.00 Mostly Cloudy SCT090 BKN110 79.9 51.1 37% 80 30.19 0.0
01 13:15 Calm 10.00 Mostly Cloudy SCT030 SCT070 BKN120 79.2 51.4 38% 79 30.19 0.0
01 12:55 Calm 10.00 Partly Cloudy SCT120 79.3 52.3 39% 79 30.2 0.0
01 12:35 Calm 10.00 Mostly Cloudy BKN120 78.8 51.3 38% 79 30.2 0.0
01 12:15 Calm 10.00 Partly Cloudy SCT120 77.9 53.6 43% 79 30.21 0.0
01 11:55 Calm 10.00 Fair CLR 77.9 53.6 78.1 67.1 43% 79 30.22 0.0
01 11:35 NE 3 10.00 Fair CLR 76.1 56.7 51% 78 30.23 0.0
01 11:15 NE 6 10.00 Fair CLR 75.2 57.6 54% 78 30.23 0.0
01 10:55 Calm 10.00 Fair CLR 75.7 54.9 48% 78 30.23 0.0
01 10:35 N 9 G 18 10.00 Fair CLR 76.1 55.2 48% 78 30.22 0.0
01 10:15 NW 8 10.00 Fair CLR 73.6 56.7 56% 30.21 0.0
01 09:55 NW 8 10.00 Partly Cloudy SCT120 72.1 56.5 58% 30.21 0.0
01 09:35 Calm 10.00 Overcast OVC110 71.2 57.2 61% 30.21 0.0
01 09:15 Calm 10.00 Mostly Cloudy SCT090 BKN120 70.7 57.6 63% 30.21 0.0
01 08:55 Calm 10.00 Mostly Cloudy SCT090 BKN120 70 57.9 66% 30.2 0.0
01 08:35 N 3 10.00 Partly Cloudy SCT070 SCT090 SCT110 69.8 57.6 65% 30.2 0.0
01 08:15 N 6 10.00 Mostly Cloudy BKN100 BKN120 69.4 57.6 66% 30.19 0.0
01 07:55 N 5 10.00 Light Rain SCT070 SCT090 OVC110 68.9 58.5 70% 30.2 0.0
01 07:35 Calm 10.00 Mostly Cloudy SCT070 BKN095 BKN120 68.7 58.3 69% 30.2 0.0
01 07:15 Calm 10.00 Overcast OVC110 68 58.6 72% 30.19 0.0
01 06:55 NW 3 10.00 Mostly Cloudy BKN110 67.1 59 75% 30.18 0.0
01 06:35 N 3 10.00 Mostly Cloudy BKN120 67.1 59 75% 30.17 0.0
01 06:15 N 3 10.00 Mostly Cloudy BKN120 67.3 59 75% 30.16 0.0
01 05:55 N 5 10.00 Partly Cloudy SCT120 67.1 59 70 66.7 75% 30.16 0.0
01 05:35 NW 3 10.00 Fair CLR 67.3 58.5 73% 30.17 0.0
01 05:15 NW 3 10.00 Fair CLR 67.1 58.8 75% 30.17 0.0
01 04:55 NW 3 10.00 Fair CLR 66.9 59.4 77% 30.16 0.0
01 04:35 N 3 10.00 Partly Cloudy SCT120 67.1 59.9 78% 30.16 0.0
01 04:15 NE 3 10.00 Partly Cloudy SCT120 67.3 60.3 78% 30.16 0.0
01 03:55 Calm 10.00 Fair CLR 67.5 59.9 77% 30.16 0.0
01 03:35 Calm 10.00 Fair CLR 69.8 58.3 67% 30.17 0.0
01 03:15 W 3 10.00 Fair CLR 69.4 57.2 65% 30.17 0.0
01 02:55 W 6 10.00 Fair CLR 69.3 56.5 64% 30.19 0.0
01 02:35 NW 3 10.00 Fair CLR 69.8 57 64% 30.19 0.0
01 02:15 NW 5 10.00 Partly Cloudy SCT120 69.8 57.6 65% 30.19 0.0
01 01:55 W 6 10.00 Mostly Cloudy SCT095 BKN120 69.8 58.1 67% 30.2 0.0
01 01:35 NW 3 10.00 Light Drizzle SCT070 SCT090 BKN110 69.8 58.5 67% 30.19 0.0
01 01:15 NE 5 10.00 Overcast SCT080 OVC110 69.8 59.5 70% 30.19 0.0
01 00:55 N 3 10.00 Light Drizzle SCT075 SCT085 OVC110 69.3 59.2 70% 30.18 0.0
01 00:35 W 5 10.00 Overcast SCT075 OVC110 69.3 58.6 69% 30.17 0.0
01 00:15 N 6 10.00 Mostly Cloudy SCT090 BKN110 69.4 58.1 67% 30.16 0.0
31 23:55 NE 12 10.00 Light Rain SCT090 BKN110 67.3 59.4 88 67.1 76% 30.17 0.0 0.02 0.02
31 23:35 W 6 10.00 Light Rain SCT070 OVC100 68.5 58.1 69% 30.17 0.0 0.01
31 23:15 NE 9 10.00 Rain SCT080 OVC100 70.7 58.8 66% 30.19 0.0
31 22:55 SW 7 10.00 Thunderstorm in Vicinity OVC100 73.6 51.8 47% 30.21 0.0
31 22:35 N 10 10.00 Partly Cloudy SCT110 74.3 50.9 44% 30.16 0.0
31 22:15 N 13 10.00 Fair CLR 74.3 50.7 44% 30.15 0.0
31 21:55 N 16 G 20 10.00 Fair CLR 76.8 49.3 38% 78 30.14 0.0
31 21:35 N 12 G 24 10.00 Fair CLR 76.5 50 40% 78 30.13 0.0
31 21:15 NW 15 G 22 10.00 Fair CLR 76.1 50 40% 78 30.13 0.0
31 20:55 N 14 10.00 Fair CLR 75.7 50.9 42% 78 30.13 0.0
31 20:35 N 12 10.00 Fair CLR 76.1 50.9 41% 78 30.13 0.0
31 20:15 N 18 G 23 10.00 Partly Cloudy SCT110 79.2 48.4 34% 79 30.13 0.0
31 19:55 N 18 G 23 10.00 Mostly Cloudy BKN110 79.9 49.1 34% 79 30.11 0.0
31 19:35 NW 17 G 28 10.00 Partly Cloudy SCT120 80.6 48.2 32% 80 30.09 0.0
31 19:15 NW 22 G 31 10.00 Fair and Breezy CLR 80.8 49.1 33% 80 30.08 0.0
31 18:55 NW 16 G 29 10.00 Fair CLR 82.8 49.1 31% 81 30.07 0.0
31 18:35 NW 18 G 29 10.00 Fair CLR 84.7 48.6 28% 82 30.06 0.0
31 18:15 NW 21 G 30 10.00 Fair and Breezy CLR 87.1 47.5 25% 84 30.06 0.0
31 17:55 NW 10 G 16 10.00 Fair CLR 88 44.1 95.2 87.6 22% 85 30.05 0.0
31 17:35 NW 10 10.00 Partly Cloudy SCT090 88.3 45 22% 85 30.04 0.0
31 17:15 NW 16 G 25 10.00 Mostly Cloudy SCT060 BKN090 BKN110 89.6 46.9 23% 86 30.05 0.0
31 16:55 NW 17 G 28 10.00 Partly Cloudy SCT120 90.9 47.5 22% 87 30.04 0.0
31 16:35 NW 18 G 25 10.00 Fair CLR 93.9 47.5 20% 90 30.04 0.0
31 16:15 N 5 10.00 Fair CLR 95.2 40.3 15% 91 30.05 0.0
31 15:55 Calm 10.00 Fair CLR 93.2 41.9 17% 89 30.06 0.0
31 15:35 NE 5 10.00 Fair CLR 93.2 43 18% 89 30.07 0.0
31 15:15 NE 7 10.00 Fair CLR 94.1 43.3 17% 90 30.07 0.0
31 14:55 N 8 10.00 Fair CLR 93.7 43.9 18% 90 30.08 0.0
31 14:35 N 12 G 16 10.00 Fair CLR 92.8 44.6 19% 89 30.1 0.0
31 14:15 NE 5 10.00 Fair CLR 92.7 45.1 19% 89 30.11 0.0
31 13:55 N 9 10.00 Fair CLR 91.8 45.5 20% 88 30.12 0.0
31 13:35 NW 10 G 17 10.00 Fair CLR 91.8 45.1 20% 88 30.13 0.0
31 13:15 Calm 10.00 Fair CLR 88.7 45.3 22% 85 30.14 0.0
31 12:55 N 12 10.00 Fair CLR 90.3 45.7 21% 87 30.15 0.0
31 12:35 N 13 G 16 10.00 Fair CLR 89.6 46.4 22% 86 30.16 0.0
31 12:15 N 9 G 17 10.00 Fair CLR 89.1 46.4 23% 86 30.16 0.0
31 11:55 N 13 G 18 10.00 Fair CLR 89.2 46.8 89.2 71.6 23% 86 30.17 0.0
31 11:35 N 9 G 18 10.00 Fair CLR 86.4 47.3 26% 84 30.18 0.0
31 11:15 N 13 10.00 Fair CLR 85.8 46.6 26% 83 30.18 0.0
31 10:55 NE 14 G 17 10.00 Fair CLR 84.7 48 28% 82 30.18 0.0
31 10:35 N 9 10.00 Fair CLR 83.3 48 29% 81 30.18 0.0
31 10:15 N 9 10.00 Fair CLR 81.1 48.4 32% 80 30.17 0.0
31 09:55 N 12 10.00 Fair CLR 78.4 48.4 35% 79 30.18 0.0
31 09:35 N 12 G 18 10.00 Fair CLR 78.8 48.6 35% 79 30.18 0.0
31 09:15 N 12 G 20 10.00 Fair CLR 77.4 50 38% 78 30.19 0.0
31 08:55 N 13 G 20 10.00 Fair CLR 75.7 50.4 41% 78 30.18 0.0
31 08:35 N 12 G 21 10.00 Fair CLR 74.8 50.9 43% 30.18 0.0
31 08:15 N 12 G 22 10.00 Fair CLR 74.5 50.9 44% 30.17 0.0
31 07:55 N 15 G 20 10.00 Fair CLR 74.3 50.9 44% 30.17 0.0
31 07:35 N 14 G 20 10.00 Fair CLR 73.4 51.3 46% 30.16 0.0
31 07:15 N 13 10.00 Fair CLR 72.9 51.8 48% 30.15 0.0
31 06:55 N 12 10.00 Fair CLR 72.1 52.2 50% 30.14 0.0
31 06:35 N 12 10.00 Fair CLR 72.1 52.7 51% 30.14 0.0
31 06:15 N 12 10.00 Fair CLR 71.6 52.9 52% 30.14 0.0
31 05:55 N 12 G 18 10.00 Partly Cloudy SCT110 72 53.1 79.2 71.6 52% 30.13 0.0
31 05:35 N 13 10.00 Mostly Cloudy BKN110 72.3 52.5 50% 30.14 0.0
31 05:15 N 8 10.00 Partly Cloudy SCT110 71.8 51.3 49% 30.14 0.0
31 04:55 NW 9 10.00 Fair CLR 72 50.9 48% 30.14 0.0
31 04:35 N 8 10.00 Fair CLR 72.5 50.5 46% 30.13 0.0
31 04:15 N 8 10.00 Partly Cloudy SCT110 73 50 44% 30.13 0.0
31 03:55 N 10 10.00 Partly Cloudy SCT110 73.4 50 44% 30.12 0.0
31 03:35 N 14 10.00 Fair CLR 74.5 49.1 41% 30.11 0.0
31 03:15 N 14 10.00 Fair CLR 74.5 48.7 40% 30.1 0.0
31 02:55 N 10 10.00 Partly Cloudy SCT110 74.7 49.1 41% 30.11 0.0
31 02:35 NW 7 10.00 Fair CLR 73.4 48.9 42% 30.11 0.0
31 02:15 NW 3 10.00 Fair CLR 74.1 48.6 41% 30.11 0.0
31 01:55 NW 6 10.00 Fair CLR 74.1 48.9 41% 30.11 0.0
31 01:35 N 5 10.00 Fair CLR 74.7 48.7 40% 30.11 0.0
31 01:15 N 3 10.00 Fair CLR 74.5 48.7 40% 30.11 0.0
31 00:55 N 5 10.00 Fair CLR 75.2 48.7 39% 78 30.11 0.0
31 00:35 N 5 10.00 Fair CLR 78.1 47.3 34% 78 30.11 0.0
31 00:15 N 6 10.00 Fair CLR 79.2 47.3 33% 79 30.12 0.0
Date Time (mdt) Wind (mph) Vis. (mi.) Weather Sky Cond. Air Dwpt Max. Min. Relative Humidity Wind Chill (°F) Heat Index (°F) altimeter (in) sea level (mb) 1 hr 3 hr 6 hr
6 hour
Temperature (ºF) Pressure Precipitation (in)